sensor_id;sensor_type;location;lat;lon;timestamp;P1;durP1;ratioP1;P2;durP2;ratioP2
69305;SDS011;56427;51.580;4.656;2022-08-19T00:00:17;21.23;;;15.13;;
69305;SDS011;56427;51.580;4.656;2022-08-19T00:02:43;20.37;;;14.13;;
69305;SDS011;56427;51.580;4.656;2022-08-19T00:05:10;19.33;;;14.13;;
69305;SDS011;56427;51.580;4.656;2022-08-19T00:07:37;22.83;;;15.07;;
69305;SDS011;56427;51.580;4.656;2022-08-19T00:10:03;22.77;;;15.30;;
69305;SDS011;56427;51.580;4.656;2022-08-19T00:12:32;27.42;;;16.33;;
69305;SDS011;56427;51.580;4.656;2022-08-19T00:14:58;21.00;;;15.10;;
69305;SDS011;56427;51.580;4.656;2022-08-19T00:17:23;22.70;;;15.13;;
69305;SDS011;56427;51.580;4.656;2022-08-19T00:19:49;24.17;;;14.80;;
69305;SDS011;56427;51.580;4.656;2022-08-19T00:22:14;23.03;;;14.30;;
69305;SDS011;56427;51.580;4.656;2022-08-19T00:24:41;21.80;;;14.55;;
69305;SDS011;56427;51.580;4.656;2022-08-19T00:27:08;21.27;;;14.18;;
69305;SDS011;56427;51.580;4.656;2022-08-19T00:29:33;18.70;;;12.73;;
69305;SDS011;56427;51.580;4.656;2022-08-19T00:31:59;19.73;;;13.88;;
69305;SDS011;56427;51.580;4.656;2022-08-19T00:34:25;23.73;;;14.73;;
69305;SDS011;56427;51.580;4.656;2022-08-19T00:36:53;20.42;;;13.98;;
69305;SDS011;56427;51.580;4.656;2022-08-19T00:39:19;22.77;;;14.85;;
69305;SDS011;56427;51.580;4.656;2022-08-19T00:41:44;19.30;;;10.90;;
69305;SDS011;56427;51.580;4.656;2022-08-19T00:44:18;16.33;;;10.38;;
69305;SDS011;56427;51.580;4.656;2022-08-19T00:46:46;13.80;;;10.20;;
69305;SDS011;56427;51.580;4.656;2022-08-19T00:49:18;17.98;;;11.07;;
69305;SDS011;56427;51.580;4.656;2022-08-19T00:51:48;19.38;;;11.13;;
69305;SDS011;56427;51.580;4.656;2022-08-19T00:54:16;16.38;;;11.40;;
69305;SDS011;56427;51.580;4.656;2022-08-19T00:56:43;15.48;;;10.88;;
69305;SDS011;56427;51.580;4.656;2022-08-19T00:59:10;14.87;;;11.90;;
69305;SDS011;56427;51.580;4.656;2022-08-19T01:01:36;17.80;;;11.20;;
69305;SDS011;56427;51.580;4.656;2022-08-19T01:04:03;17.67;;;12.57;;
69305;SDS011;56427;51.580;4.656;2022-08-19T01:06:28;18.93;;;13.20;;
69305;SDS011;56427;51.580;4.656;2022-08-19T01:08:57;19.50;;;13.02;;
69305;SDS011;56427;51.580;4.656;2022-08-19T01:11:23;21.52;;;14.10;;
69305;SDS011;56427;51.580;4.656;2022-08-19T01:13:48;22.23;;;13.67;;
69305;SDS011;56427;51.580;4.656;2022-08-19T01:16:17;22.40;;;14.27;;
69305;SDS011;56427;51.580;4.656;2022-08-19T01:18:45;24.10;;;15.47;;
69305;SDS011;56427;51.580;4.656;2022-08-19T01:21:45;24.05;;;14.95;;
69305;SDS011;56427;51.580;4.656;2022-08-19T01:24:05;22.67;;;13.63;;
69305;SDS011;56427;51.580;4.656;2022-08-19T01:26:31;22.13;;;14.67;;
69305;SDS011;56427;51.580;4.656;2022-08-19T01:28:57;20.40;;;14.47;;
69305;SDS011;56427;51.580;4.656;2022-08-19T01:31:26;24.60;;;15.52;;
69305;SDS011;56427;51.580;4.656;2022-08-19T01:33:56;23.52;;;16.23;;
69305;SDS011;56427;51.580;4.656;2022-08-19T01:36:32;22.70;;;15.48;;
69305;SDS011;56427;51.580;4.656;2022-08-19T01:39:04;24.95;;;15.38;;
69305;SDS011;56427;51.580;4.656;2022-08-19T01:41:33;23.43;;;15.60;;
69305;SDS011;56427;51.580;4.656;2022-08-19T01:43:59;27.80;;;17.58;;
69305;SDS011;56427;51.580;4.656;2022-08-19T01:46:29;24.80;;;16.13;;
69305;SDS011;56427;51.580;4.656;2022-08-19T01:48:55;28.30;;;16.58;;
69305;SDS011;56427;51.580;4.656;2022-08-19T01:51:21;30.90;;;18.83;;
69305;SDS011;56427;51.580;4.656;2022-08-19T01:53:47;30.92;;;19.38;;
69305;SDS011;56427;51.580;4.656;2022-08-19T01:56:14;27.30;;;17.30;;
69305;SDS011;56427;51.580;4.656;2022-08-19T01:58:41;29.07;;;18.13;;
69305;SDS011;56427;51.580;4.656;2022-08-19T02:01:13;28.20;;;18.70;;
69305;SDS011;56427;51.580;4.656;2022-08-19T02:03:39;30.85;;;20.20;;
69305;SDS011;56427;51.580;4.656;2022-08-19T02:06:04;28.67;;;20.20;;
69305;SDS011;56427;51.580;4.656;2022-08-19T02:08:31;35.78;;;21.83;;
69305;SDS011;56427;51.580;4.656;2022-08-19T02:10:57;34.60;;;21.13;;
69305;SDS011;56427;51.580;4.656;2022-08-19T02:13:23;36.63;;;22.63;;
69305;SDS011;56427;51.580;4.656;2022-08-19T02:15:50;47.15;;;26.08;;
69305;SDS011;56427;51.580;4.656;2022-08-19T02:18:16;47.60;;;26.30;;
69305;SDS011;56427;51.580;4.656;2022-08-19T02:20:41;60.67;;;31.43;;
69305;SDS011;56427;51.580;4.656;2022-08-19T02:23:09;57.70;;;31.92;;
69305;SDS011;56427;51.580;4.656;2022-08-19T02:25:35;70.22;;;32.10;;
69305;SDS011;56427;51.580;4.656;2022-08-19T02:28:01;69.03;;;32.00;;
69305;SDS011;56427;51.580;4.656;2022-08-19T02:30:26;71.35;;;34.05;;
69305;SDS011;56427;51.580;4.656;2022-08-19T02:32:52;81.50;;;36.93;;
69305;SDS011;56427;51.580;4.656;2022-08-19T02:35:18;77.60;;;36.83;;
69305;SDS011;56427;51.580;4.656;2022-08-19T02:37:44;77.95;;;35.38;;
69305;SDS011;56427;51.580;4.656;2022-08-19T02:40:29;81.63;;;37.20;;
69305;SDS011;56427;51.580;4.656;2022-08-19T02:42:56;77.78;;;36.53;;
69305;SDS011;56427;51.580;4.656;2022-08-19T02:45:22;79.83;;;37.53;;
69305;SDS011;56427;51.580;4.656;2022-08-19T02:47:47;81.40;;;37.60;;
69305;SDS011;56427;51.580;4.656;2022-08-19T02:50:13;75.23;;;36.20;;
69305;SDS011;56427;51.580;4.656;2022-08-19T02:52:39;84.05;;;39.63;;
69305;SDS011;56427;51.580;4.656;2022-08-19T02:55:05;80.30;;;39.07;;
69305;SDS011;56427;51.580;4.656;2022-08-19T02:57:31;75.07;;;38.07;;
69305;SDS011;56427;51.580;4.656;2022-08-19T02:59:57;81.13;;;38.83;;
69305;SDS011;56427;51.580;4.656;2022-08-19T03:02:22;75.80;;;36.27;;
69305;SDS011;56427;51.580;4.656;2022-08-19T03:04:47;82.93;;;39.83;;
69305;SDS011;56427;51.580;4.656;2022-08-19T03:07:14;82.18;;;39.95;;
69305;SDS011;56427;51.580;4.656;2022-08-19T03:09:40;88.93;;;39.97;;
69305;SDS011;56427;51.580;4.656;2022-08-19T03:12:09;92.28;;;41.90;;
69305;SDS011;56427;51.580;4.656;2022-08-19T03:14:35;83.30;;;40.08;;
69305;SDS011;56427;51.580;4.656;2022-08-19T03:17:01;82.05;;;40.15;;
69305;SDS011;56427;51.580;4.656;2022-08-19T03:19:28;86.97;;;40.97;;
69305;SDS011;56427;51.580;4.656;2022-08-19T03:21:54;87.67;;;40.43;;
69305;SDS011;56427;51.580;4.656;2022-08-19T03:24:20;82.80;;;40.30;;
69305;SDS011;56427;51.580;4.656;2022-08-19T03:26:47;82.77;;;39.43;;
69305;SDS011;56427;51.580;4.656;2022-08-19T03:29:14;83.38;;;39.42;;
69305;SDS011;56427;51.580;4.656;2022-08-19T03:31:41;86.32;;;41.55;;
69305;SDS011;56427;51.580;4.656;2022-08-19T03:34:08;83.07;;;39.67;;
69305;SDS011;56427;51.580;4.656;2022-08-19T03:36:36;79.77;;;39.33;;
69305;SDS011;56427;51.580;4.656;2022-08-19T03:39:03;87.57;;;40.10;;
69305;SDS011;56427;51.580;4.656;2022-08-19T03:41:33;80.65;;;40.15;;
69305;SDS011;56427;51.580;4.656;2022-08-19T03:44:02;72.30;;;36.63;;
69305;SDS011;56427;51.580;4.656;2022-08-19T03:46:30;81.07;;;38.50;;
69305;SDS011;56427;51.580;4.656;2022-08-19T03:48:58;71.93;;;36.97;;
69305;SDS011;56427;51.580;4.656;2022-08-19T03:51:29;81.85;;;37.60;;
69305;SDS011;56427;51.580;4.656;2022-08-19T03:53:57;77.15;;;38.63;;
69305;SDS011;56427;51.580;4.656;2022-08-19T03:56:25;74.88;;;36.72;;
69305;SDS011;56427;51.580;4.656;2022-08-19T03:58:52;72.30;;;36.72;;
69305;SDS011;56427;51.580;4.656;2022-08-19T04:01:18;70.93;;;36.27;;
69305;SDS011;56427;51.580;4.656;2022-08-19T04:03:47;73.25;;;36.65;;
69305;SDS011;56427;51.580;4.656;2022-08-19T04:06:13;73.53;;;36.67;;
69305;SDS011;56427;51.580;4.656;2022-08-19T04:08:44;67.43;;;34.25;;
69305;SDS011;56427;51.580;4.656;2022-08-19T04:11:11;68.30;;;33.75;;
69305;SDS011;56427;51.580;4.656;2022-08-19T04:13:39;70.77;;;34.80;;
69305;SDS011;56427;51.580;4.656;2022-08-19T04:16:05;61.97;;;33.13;;
69305;SDS011;56427;51.580;4.656;2022-08-19T04:18:32;69.57;;;33.47;;
69305;SDS011;56427;51.580;4.656;2022-08-19T04:20:58;70.50;;;34.25;;
69305;SDS011;56427;51.580;4.656;2022-08-19T04:23:24;66.00;;;33.50;;
69305;SDS011;56427;51.580;4.656;2022-08-19T04:25:49;65.93;;;32.78;;
69305;SDS011;56427;51.580;4.656;2022-08-19T04:28:15;64.87;;;30.87;;
69305;SDS011;56427;51.580;4.656;2022-08-19T04:30:42;70.15;;;32.60;;
69305;SDS011;56427;51.580;4.656;2022-08-19T04:33:10;64.93;;;33.17;;
69305;SDS011;56427;51.580;4.656;2022-08-19T04:35:40;61.00;;;31.60;;
69305;SDS011;56427;51.580;4.656;2022-08-19T04:38:08;66.20;;;31.70;;
69305;SDS011;56427;51.580;4.656;2022-08-19T04:40:34;65.40;;;30.25;;
69305;SDS011;56427;51.580;4.656;2022-08-19T04:43:26;61.45;;;29.40;;
69305;SDS011;56427;51.580;4.656;2022-08-19T04:45:51;64.73;;;31.20;;
69305;SDS011;56427;51.580;4.656;2022-08-19T04:48:17;65.72;;;31.85;;
69305;SDS011;56427;51.580;4.656;2022-08-19T04:50:51;66.10;;;30.83;;
69305;SDS011;56427;51.580;4.656;2022-08-19T04:53:21;61.43;;;27.87;;
69305;SDS011;56427;51.580;4.656;2022-08-19T04:55:47;62.90;;;30.38;;
69305;SDS011;56427;51.580;4.656;2022-08-19T04:58:12;62.10;;;29.87;;
69305;SDS011;56427;51.580;4.656;2022-08-19T05:00:38;61.57;;;29.67;;
69305;SDS011;56427;51.580;4.656;2022-08-19T05:03:04;61.42;;;29.17;;
69305;SDS011;56427;51.580;4.656;2022-08-19T05:05:30;57.43;;;28.63;;
69305;SDS011;56427;51.580;4.656;2022-08-19T05:07:56;61.80;;;29.00;;
69305;SDS011;56427;51.580;4.656;2022-08-19T05:10:21;64.90;;;28.83;;
69305;SDS011;56427;51.580;4.656;2022-08-19T05:12:46;60.10;;;28.30;;
69305;SDS011;56427;51.580;4.656;2022-08-19T05:15:12;48.47;;;27.00;;
69305;SDS011;56427;51.580;4.656;2022-08-19T05:17:37;59.07;;;26.43;;
69305;SDS011;56427;51.580;4.656;2022-08-19T05:20:03;53.10;;;27.17;;
69305;SDS011;56427;51.580;4.656;2022-08-19T05:22:49;49.67;;;24.80;;
69305;SDS011;56427;51.580;4.656;2022-08-19T05:25:16;47.00;;;24.80;;
69305;SDS011;56427;51.580;4.656;2022-08-19T05:27:43;44.63;;;24.50;;
69305;SDS011;56427;51.580;4.656;2022-08-19T05:30:10;50.10;;;23.98;;
69305;SDS011;56427;51.580;4.656;2022-08-19T05:32:36;49.65;;;24.40;;
69305;SDS011;56427;51.580;4.656;2022-08-19T05:35:04;47.40;;;24.80;;
69305;SDS011;56427;51.580;4.656;2022-08-19T05:37:30;39.95;;;23.27;;
69305;SDS011;56427;51.580;4.656;2022-08-19T05:39:56;41.85;;;22.63;;
69305;SDS011;56427;51.580;4.656;2022-08-19T05:42:22;46.73;;;23.17;;
69305;SDS011;56427;51.580;4.656;2022-08-19T05:44:48;41.42;;;22.90;;
69305;SDS011;56427;51.580;4.656;2022-08-19T05:47:15;52.00;;;25.35;;
69305;SDS011;56427;51.580;4.656;2022-08-19T05:49:41;42.00;;;23.63;;
69305;SDS011;56427;51.580;4.656;2022-08-19T05:52:09;48.13;;;25.60;;
69305;SDS011;56427;51.580;4.656;2022-08-19T05:54:37;49.20;;;25.50;;
69305;SDS011;56427;51.580;4.656;2022-08-19T05:57:06;48.15;;;25.00;;
69305;SDS011;56427;51.580;4.656;2022-08-19T05:59:32;44.70;;;24.27;;
69305;SDS011;56427;51.580;4.656;2022-08-19T06:02:00;49.72;;;25.23;;
69305;SDS011;56427;51.580;4.656;2022-08-19T06:04:25;46.63;;;24.80;;
69305;SDS011;56427;51.580;4.656;2022-08-19T06:06:51;45.13;;;24.23;;
69305;SDS011;56427;51.580;4.656;2022-08-19T06:09:19;47.72;;;25.42;;
69305;SDS011;56427;51.580;4.656;2022-08-19T06:11:46;49.92;;;25.20;;
69305;SDS011;56427;51.580;4.656;2022-08-19T06:14:14;45.40;;;24.60;;
69305;SDS011;56427;51.580;4.656;2022-08-19T06:16:44;45.58;;;24.30;;
69305;SDS011;56427;51.580;4.656;2022-08-19T06:19:13;42.53;;;23.03;;
69305;SDS011;56427;51.580;4.656;2022-08-19T06:21:42;45.20;;;23.80;;
69305;SDS011;56427;51.580;4.656;2022-08-19T06:24:10;42.40;;;24.15;;
69305;SDS011;56427;51.580;4.656;2022-08-19T06:26:37;44.97;;;23.00;;
69305;SDS011;56427;51.580;4.656;2022-08-19T06:29:05;44.60;;;22.83;;
69305;SDS011;56427;51.580;4.656;2022-08-19T06:31:32;46.03;;;23.48;;
69305;SDS011;56427;51.580;4.656;2022-08-19T06:33:59;43.55;;;23.42;;
69305;SDS011;56427;51.580;4.656;2022-08-19T06:36:29;45.75;;;23.05;;
69305;SDS011;56427;51.580;4.656;2022-08-19T06:38:59;42.17;;;23.13;;
69305;SDS011;56427;51.580;4.656;2022-08-19T06:41:30;42.47;;;23.77;;
69305;SDS011;56427;51.580;4.656;2022-08-19T06:43:56;48.72;;;23.13;;
69305;SDS011;56427;51.580;4.656;2022-08-19T06:46:22;44.50;;;23.02;;
69305;SDS011;56427;51.580;4.656;2022-08-19T06:48:48;39.47;;;23.00;;
69305;SDS011;56427;51.580;4.656;2022-08-19T06:51:15;42.92;;;22.08;;
69305;SDS011;56427;51.580;4.656;2022-08-19T06:53:44;41.30;;;22.85;;
69305;SDS011;56427;51.580;4.656;2022-08-19T06:56:20;41.78;;;22.27;;
69305;SDS011;56427;51.580;4.656;2022-08-19T06:58:49;40.60;;;20.70;;
69305;SDS011;56427;51.580;4.656;2022-08-19T07:01:17;43.00;;;22.13;;
69305;SDS011;56427;51.580;4.656;2022-08-19T07:03:43;40.75;;;20.90;;
69305;SDS011;56427;51.580;4.656;2022-08-19T07:06:09;40.33;;;21.37;;
69305;SDS011;56427;51.580;4.656;2022-08-19T07:08:37;34.70;;;19.83;;
69305;SDS011;56427;51.580;4.656;2022-08-19T07:11:07;41.33;;;20.73;;
69305;SDS011;56427;51.580;4.656;2022-08-19T07:13:34;37.17;;;21.25;;
69305;SDS011;56427;51.580;4.656;2022-08-19T07:16:05;36.30;;;20.15;;
69305;SDS011;56427;51.580;4.656;2022-08-19T07:18:31;39.58;;;22.27;;
69305;SDS011;56427;51.580;4.656;2022-08-19T07:21:10;41.27;;;22.97;;
69305;SDS011;56427;51.580;4.656;2022-08-19T07:23:37;42.63;;;21.77;;
69305;SDS011;56427;51.580;4.656;2022-08-19T07:26:07;36.90;;;21.47;;
69305;SDS011;56427;51.580;4.656;2022-08-19T07:28:34;41.72;;;20.88;;
69305;SDS011;56427;51.580;4.656;2022-08-19T07:31:03;37.72;;;20.30;;
69305;SDS011;56427;51.580;4.656;2022-08-19T07:33:32;35.50;;;19.80;;
69305;SDS011;56427;51.580;4.656;2022-08-19T07:35:58;34.50;;;20.57;;
69305;SDS011;56427;51.580;4.656;2022-08-19T07:38:24;36.97;;;21.35;;
69305;SDS011;56427;51.580;4.656;2022-08-19T07:40:49;31.42;;;20.25;;
69305;SDS011;56427;51.580;4.656;2022-08-19T07:43:16;34.95;;;18.65;;
69305;SDS011;56427;51.580;4.656;2022-08-19T07:45:47;29.87;;;17.00;;
69305;SDS011;56427;51.580;4.656;2022-08-19T07:48:13;31.00;;;17.65;;
69305;SDS011;56427;51.580;4.656;2022-08-19T07:50:39;30.47;;;17.57;;
69305;SDS011;56427;51.580;4.656;2022-08-19T07:53:04;30.10;;;16.52;;
69305;SDS011;56427;51.580;4.656;2022-08-19T07:55:30;30.93;;;15.53;;
69305;SDS011;56427;51.580;4.656;2022-08-19T07:57:55;27.23;;;14.93;;
69305;SDS011;56427;51.580;4.656;2022-08-19T08:00:21;22.03;;;14.07;;
69305;SDS011;56427;51.580;4.656;2022-08-19T08:02:46;26.48;;;14.85;;
69305;SDS011;56427;51.580;4.656;2022-08-19T08:05:12;24.13;;;13.83;;
69305;SDS011;56427;51.580;4.656;2022-08-19T08:07:56;20.80;;;13.50;;
69305;SDS011;56427;51.580;4.656;2022-08-19T08:10:40;23.98;;;13.40;;
69305;SDS011;56427;51.580;4.656;2022-08-19T08:13:06;21.93;;;12.80;;
69305;SDS011;56427;51.580;4.656;2022-08-19T08:15:31;23.47;;;13.57;;
69305;SDS011;56427;51.580;4.656;2022-08-19T08:17:57;23.53;;;12.90;;
69305;SDS011;56427;51.580;4.656;2022-08-19T08:20:22;24.73;;;12.77;;
69305;SDS011;56427;51.580;4.656;2022-08-19T08:22:48;23.08;;;13.77;;
69305;SDS011;56427;51.580;4.656;2022-08-19T08:25:32;18.65;;;12.50;;
69305;SDS011;56427;51.580;4.656;2022-08-19T08:28:00;21.95;;;13.68;;
69305;SDS011;56427;51.580;4.656;2022-08-19T08:30:26;21.33;;;12.90;;
69305;SDS011;56427;51.580;4.656;2022-08-19T08:32:52;24.27;;;13.57;;
69305;SDS011;56427;51.580;4.656;2022-08-19T08:35:20;25.27;;;13.67;;
69305;SDS011;56427;51.580;4.656;2022-08-19T08:37:48;20.48;;;13.52;;
69305;SDS011;56427;51.580;4.656;2022-08-19T08:42:48;25.17;;;13.68;;
69305;SDS011;56427;51.580;4.656;2022-08-19T08:45:23;23.35;;;13.45;;
69305;SDS011;56427;51.580;4.656;2022-08-19T08:47:50;23.27;;;13.93;;
69305;SDS011;56427;51.580;4.656;2022-08-19T08:50:23;24.50;;;14.15;;
69305;SDS011;56427;51.580;4.656;2022-08-19T08:52:56;25.42;;;14.68;;
69305;SDS011;56427;51.580;4.656;2022-08-19T08:55:25;24.27;;;14.50;;
69305;SDS011;56427;51.580;4.656;2022-08-19T08:58:04;20.48;;;13.73;;
69305;SDS011;56427;51.580;4.656;2022-08-19T09:00:39;25.27;;;13.80;;
69305;SDS011;56427;51.580;4.656;2022-08-19T09:03:10;18.98;;;12.43;;
69305;SDS011;56427;51.580;4.656;2022-08-19T09:11:39;23.20;;;14.65;;
69305;SDS011;56427;51.580;4.656;2022-08-19T09:14:37;24.92;;;13.65;;
69305;SDS011;56427;51.580;4.656;2022-08-19T09:17:07;22.33;;;13.77;;
69305;SDS011;56427;51.580;4.656;2022-08-19T09:19:34;30.52;;;15.30;;
69305;SDS011;56427;51.580;4.656;2022-08-19T09:22:01;26.37;;;15.10;;
69305;SDS011;56427;51.580;4.656;2022-08-19T09:24:26;25.17;;;15.93;;
69305;SDS011;56427;51.580;4.656;2022-08-19T09:26:51;30.27;;;17.40;;
69305;SDS011;56427;51.580;4.656;2022-08-19T09:29:17;23.37;;;16.23;;
69305;SDS011;56427;51.580;4.656;2022-08-19T09:31:42;26.17;;;15.53;;
69305;SDS011;56427;51.580;4.656;2022-08-19T09:34:07;22.97;;;13.80;;
69305;SDS011;56427;51.580;4.656;2022-08-19T09:36:33;24.75;;;15.35;;
69305;SDS011;56427;51.580;4.656;2022-08-19T09:39:00;21.53;;;12.87;;
69305;SDS011;56427;51.580;4.656;2022-08-19T09:41:28;22.83;;;15.60;;
69305;SDS011;56427;51.580;4.656;2022-08-19T09:43:54;20.73;;;14.73;;
69305;SDS011;56427;51.580;4.656;2022-08-19T09:46:22;22.20;;;14.25;;
69305;SDS011;56427;51.580;4.656;2022-08-19T09:48:50;25.25;;;13.48;;
69305;SDS011;56427;51.580;4.656;2022-08-19T09:51:18;18.20;;;12.82;;
69305;SDS011;56427;51.580;4.656;2022-08-19T09:53:47;17.35;;;13.18;;
69305;SDS011;56427;51.580;4.656;2022-08-19T09:56:18;17.80;;;12.17;;
69305;SDS011;56427;51.580;4.656;2022-08-19T09:58:45;21.55;;;13.80;;
69305;SDS011;56427;51.580;4.656;2022-08-19T10:01:16;18.80;;;11.88;;
69305;SDS011;56427;51.580;4.656;2022-08-19T10:03:49;17.45;;;11.68;;
69305;SDS011;56427;51.580;4.656;2022-08-19T10:06:18;18.70;;;12.27;;
69305;SDS011;56427;51.580;4.656;2022-08-19T10:08:44;18.33;;;12.07;;
69305;SDS011;56427;51.580;4.656;2022-08-19T10:11:10;18.45;;;12.77;;
69305;SDS011;56427;51.580;4.656;2022-08-19T10:13:36;17.10;;;12.57;;
69305;SDS011;56427;51.580;4.656;2022-08-19T10:16:03;13.80;;;10.65;;
69305;SDS011;56427;51.580;4.656;2022-08-19T10:18:31;16.47;;;10.60;;
69305;SDS011;56427;51.580;4.656;2022-08-19T10:21:03;17.52;;;10.55;;
69305;SDS011;56427;51.580;4.656;2022-08-19T10:23:33;12.40;;;9.05;;
69305;SDS011;56427;51.580;4.656;2022-08-19T10:25:59;14.15;;;8.82;;
69305;SDS011;56427;51.580;4.656;2022-08-19T10:28:26;15.63;;;9.90;;
69305;SDS011;56427;51.580;4.656;2022-08-19T10:30:51;14.90;;;9.00;;
69305;SDS011;56427;51.580;4.656;2022-08-19T10:33:17;17.57;;;9.13;;
69305;SDS011;56427;51.580;4.656;2022-08-19T10:35:42;13.30;;;8.52;;
69305;SDS011;56427;51.580;4.656;2022-08-19T10:38:09;14.25;;;10.13;;
69305;SDS011;56427;51.580;4.656;2022-08-19T10:40:34;16.07;;;10.27;;
69305;SDS011;56427;51.580;4.656;2022-08-19T10:42:59;14.87;;;9.57;;
69305;SDS011;56427;51.580;4.656;2022-08-19T10:45:25;14.47;;;9.77;;
69305;SDS011;56427;51.580;4.656;2022-08-19T10:47:51;15.30;;;9.23;;
69305;SDS011;56427;51.580;4.656;2022-08-19T10:50:18;13.73;;;10.33;;
69305;SDS011;56427;51.580;4.656;2022-08-19T10:53:05;16.10;;;11.98;;
69305;SDS011;56427;51.580;4.656;2022-08-19T10:55:33;13.90;;;10.20;;
69305;SDS011;56427;51.580;4.656;2022-08-19T10:58:18;19.58;;;11.82;;
69305;SDS011;56427;51.580;4.656;2022-08-19T11:00:51;19.17;;;14.18;;
69305;SDS011;56427;51.580;4.656;2022-08-19T11:03:21;21.97;;;14.90;;
69305;SDS011;56427;51.580;4.656;2022-08-19T11:05:56;21.13;;;14.70;;
69305;SDS011;56427;51.580;4.656;2022-08-19T11:08:23;23.63;;;16.90;;
69305;SDS011;56427;51.580;4.656;2022-08-19T11:10:50;23.35;;;16.80;;
69305;SDS011;56427;51.580;4.656;2022-08-19T11:13:18;27.25;;;18.85;;
69305;SDS011;56427;51.580;4.656;2022-08-19T11:15:44;28.33;;;19.77;;
69305;SDS011;56427;51.580;4.656;2022-08-19T11:18:11;26.90;;;19.67;;
69305;SDS011;56427;51.580;4.656;2022-08-19T11:20:36;33.57;;;21.13;;
69305;SDS011;56427;51.580;4.656;2022-08-19T11:23:01;28.40;;;19.13;;
69305;SDS011;56427;51.580;4.656;2022-08-19T11:25:27;28.83;;;18.10;;
69305;SDS011;56427;51.580;4.656;2022-08-19T11:27:52;20.33;;;15.37;;
69305;SDS011;56427;51.580;4.656;2022-08-19T11:30:18;19.80;;;14.37;;
69305;SDS011;56427;51.580;4.656;2022-08-19T11:32:43;27.93;;;17.00;;
69305;SDS011;56427;51.580;4.656;2022-08-19T11:35:08;28.07;;;19.10;;
69305;SDS011;56427;51.580;4.656;2022-08-19T11:37:36;28.90;;;19.20;;
69305;SDS011;56427;51.580;4.656;2022-08-19T11:40:03;33.60;;;19.33;;
69305;SDS011;56427;51.580;4.656;2022-08-19T11:42:29;30.33;;;18.27;;
69305;SDS011;56427;51.580;4.656;2022-08-19T11:45:14;28.50;;;17.70;;
69305;SDS011;56427;51.580;4.656;2022-08-19T11:47:39;27.13;;;17.53;;
69305;SDS011;56427;51.580;4.656;2022-08-19T11:50:04;25.77;;;16.90;;
69305;SDS011;56427;51.580;4.656;2022-08-19T11:52:30;24.02;;;15.63;;
69305;SDS011;56427;51.580;4.656;2022-08-19T11:54:56;26.27;;;15.70;;
69305;SDS011;56427;51.580;4.656;2022-08-19T11:57:22;24.13;;;15.05;;
69305;SDS011;56427;51.580;4.656;2022-08-19T11:59:48;24.97;;;13.77;;
69305;SDS011;56427;51.580;4.656;2022-08-19T12:02:15;22.40;;;14.75;;
69305;SDS011;56427;51.580;4.656;2022-08-19T12:04:40;21.63;;;14.27;;
69305;SDS011;56427;51.580;4.656;2022-08-19T12:07:05;21.37;;;14.27;;
69305;SDS011;56427;51.580;4.656;2022-08-19T12:09:31;24.27;;;15.00;;
69305;SDS011;56427;51.580;4.656;2022-08-19T12:11:57;23.50;;;15.67;;
69305;SDS011;56427;51.580;4.656;2022-08-19T12:14:22;23.60;;;14.10;;
69305;SDS011;56427;51.580;4.656;2022-08-19T12:16:48;20.83;;;14.65;;
69305;SDS011;56427;51.580;4.656;2022-08-19T12:19:14;21.10;;;14.40;;
69305;SDS011;56427;51.580;4.656;2022-08-19T12:21:40;22.23;;;13.20;;
69305;SDS011;56427;51.580;4.656;2022-08-19T12:24:06;15.77;;;11.00;;
69305;SDS011;56427;51.580;4.656;2022-08-19T12:26:32;18.43;;;12.03;;
69305;SDS011;56427;51.580;4.656;2022-08-19T12:28:58;17.38;;;11.88;;
69305;SDS011;56427;51.580;4.656;2022-08-19T12:31:24;21.08;;;12.80;;
69305;SDS011;56427;51.580;4.656;2022-08-19T12:33:50;19.15;;;12.82;;
69305;SDS011;56427;51.580;4.656;2022-08-19T12:36:17;19.88;;;13.27;;
69305;SDS011;56427;51.580;4.656;2022-08-19T12:38:43;17.97;;;12.43;;
69305;SDS011;56427;51.580;4.656;2022-08-19T12:41:10;19.30;;;13.45;;
69305;SDS011;56427;51.580;4.656;2022-08-19T12:43:37;19.52;;;13.35;;
69305;SDS011;56427;51.580;4.656;2022-08-19T12:46:03;22.07;;;14.17;;
69305;SDS011;56427;51.580;4.656;2022-08-19T12:48:30;22.15;;;13.93;;
69305;SDS011;56427;51.580;4.656;2022-08-19T12:50:56;21.58;;;14.32;;
69305;SDS011;56427;51.580;4.656;2022-08-19T12:53:21;23.33;;;14.10;;
69305;SDS011;56427;51.580;4.656;2022-08-19T12:55:47;22.35;;;13.70;;
69305;SDS011;56427;51.580;4.656;2022-08-19T12:58:12;21.97;;;14.73;;
69305;SDS011;56427;51.580;4.656;2022-08-19T13:00:37;20.57;;;13.17;;
69305;SDS011;56427;51.580;4.656;2022-08-19T13:03:03;20.15;;;13.00;;
69305;SDS011;56427;51.580;4.656;2022-08-19T13:05:30;21.60;;;13.87;;
69305;SDS011;56427;51.580;4.656;2022-08-19T13:07:57;20.98;;;13.35;;
69305;SDS011;56427;51.580;4.656;2022-08-19T13:10:26;20.63;;;13.07;;
69305;SDS011;56427;51.580;4.656;2022-08-19T13:12:54;19.52;;;13.18;;
69305;SDS011;56427;51.580;4.656;2022-08-19T13:15:20;20.77;;;13.13;;
69305;SDS011;56427;51.580;4.656;2022-08-19T13:17:47;19.33;;;13.23;;
69305;SDS011;56427;51.580;4.656;2022-08-19T13:20:15;18.25;;;13.20;;
69305;SDS011;56427;51.580;4.656;2022-08-19T13:22:41;18.92;;;12.60;;
69305;SDS011;56427;51.580;4.656;2022-08-19T13:25:08;17.23;;;11.17;;
69305;SDS011;56427;51.580;4.656;2022-08-19T13:27:33;17.00;;;12.10;;
69305;SDS011;56427;51.580;4.656;2022-08-19T13:29:59;16.33;;;11.82;;
69305;SDS011;56427;51.580;4.656;2022-08-19T13:32:44;16.50;;;11.40;;
69305;SDS011;56427;51.580;4.656;2022-08-19T13:35:28;17.55;;;11.95;;
69305;SDS011;56427;51.580;4.656;2022-08-19T13:37:53;19.20;;;12.70;;
69305;SDS011;56427;51.580;4.656;2022-08-19T13:40:20;16.97;;;12.33;;
69305;SDS011;56427;51.580;4.656;2022-08-19T13:42:49;19.92;;;12.75;;
69305;SDS011;56427;51.580;4.656;2022-08-19T13:45:17;18.87;;;12.70;;
69305;SDS011;56427;51.580;4.656;2022-08-19T13:47:45;19.98;;;12.35;;
69305;SDS011;56427;51.580;4.656;2022-08-19T13:50:18;18.02;;;11.98;;
69305;SDS011;56427;51.580;4.656;2022-08-19T13:52:46;19.20;;;12.75;;
69305;SDS011;56427;51.580;4.656;2022-08-19T13:55:12;17.00;;;10.93;;
69305;SDS011;56427;51.580;4.656;2022-08-19T13:57:39;15.43;;;10.30;;
69305;SDS011;56427;51.580;4.656;2022-08-19T14:00:07;14.70;;;9.80;;
69305;SDS011;56427;51.580;4.656;2022-08-19T14:02:38;14.88;;;9.07;;
69305;SDS011;56427;51.580;4.656;2022-08-19T14:05:08;14.48;;;9.07;;
69305;SDS011;56427;51.580;4.656;2022-08-19T14:07:35;17.70;;;9.18;;
69305;SDS011;56427;51.580;4.656;2022-08-19T14:10:01;16.30;;;10.00;;
69305;SDS011;56427;51.580;4.656;2022-08-19T14:12:28;14.80;;;9.07;;
69305;SDS011;56427;51.580;4.656;2022-08-19T14:14:53;16.97;;;9.33;;
69305;SDS011;56427;51.580;4.656;2022-08-19T14:17:19;19.70;;;11.00;;
69305;SDS011;56427;51.580;4.656;2022-08-19T14:19:44;16.20;;;10.60;;
69305;SDS011;56427;51.580;4.656;2022-08-19T14:22:09;16.80;;;10.67;;
69305;SDS011;56427;51.580;4.656;2022-08-19T14:24:36;16.37;;;10.80;;
69305;SDS011;56427;51.580;4.656;2022-08-19T14:27:04;18.48;;;11.70;;
69305;SDS011;56427;51.580;4.656;2022-08-19T14:29:31;17.23;;;11.20;;
69305;SDS011;56427;51.580;4.656;2022-08-19T14:31:56;18.47;;;12.57;;